createdAt,value
2023-04-02T00:02:21.806Z,7.50
2023-04-02T00:05:19.405Z,7.50
2023-04-02T00:07:51.030Z,7.50
2023-04-02T00:10:39.753Z,7.50
2023-04-02T00:13:31.845Z,7.40
2023-04-02T00:16:00.204Z,7.40
2023-04-02T00:18:27.615Z,7.40
2023-04-02T00:21:08.931Z,7.40
2023-04-02T00:23:41.980Z,7.40
2023-04-02T00:26:32.173Z,7.40
2023-04-02T00:29:01.163Z,7.40
2023-04-02T03:30:49.738Z,7.40
2023-04-02T03:51:54.434Z,7.00
2023-04-02T03:54:21.906Z,6.90
2023-04-02T03:56:49.491Z,6.90
2023-04-02T03:59:21.188Z,6.90
2023-04-02T04:02:12.770Z,6.90
2023-04-02T04:04:42.933Z,6.90
2023-04-02T04:07:19.620Z,6.90
2023-04-02T04:09:48.506Z,6.90
2023-04-02T04:12:28.650Z,6.90
2023-04-02T04:15:14.056Z,6.90
2023-04-02T04:17:54.714Z,6.90
2023-04-02T04:20:29.399Z,6.80
2023-04-02T04:23:08.778Z,6.80
2023-04-02T04:25:37.012Z,6.80
2023-04-02T04:28:43.182Z,6.80
2023-04-02T04:31:42.330Z,6.80
2023-04-02T04:34:16.407Z,6.80
2023-04-02T04:36:53.966Z,6.70
2023-04-02T04:39:36.568Z,6.70
2023-04-02T04:42:05.699Z,6.70
2023-04-02T04:44:43.432Z,6.70
2023-04-02T08:49:13.753Z,6.70
2023-04-02T08:51:40.926Z,9.10
2023-04-02T08:54:14.225Z,9.10
2023-04-02T08:56:44.301Z,9.10
2023-04-02T08:59:24.811Z,9.10
2023-04-02T09:02:19.364Z,8.90
2023-04-02T09:04:46.022Z,9.10
2023-04-02T09:07:15.349Z,9.10
2023-04-02T09:20:23.509Z,9.10
2023-04-02T09:22:53.078Z,9.50
2023-04-02T09:25:28.786Z,9.50
2023-04-02T09:27:57.760Z,9.60
2023-04-02T09:30:45.903Z,9.70
2023-04-02T09:33:12.840Z,9.70
2023-04-02T09:35:59.823Z,9.70
2023-04-02T09:38:32.803Z,9.80
2023-04-02T09:41:18.451Z,9.80
2023-04-02T09:43:45.107Z,9.80
2023-04-02T09:46:24.242Z,9.90
2023-04-02T09:48:55.568Z,10.10
2023-04-02T09:51:33.094Z,10.30
2023-04-02T09:54:05.832Z,10.40
2023-04-02T09:56:37.182Z,10.10
2023-04-02T09:59:15.025Z,10.00
2023-04-02T10:02:01.812Z,10.00
2023-04-02T10:04:39.105Z,10.00
2023-04-02T10:07:06.876Z,10.00
2023-04-02T10:09:37.210Z,9.90
2023-04-02T10:12:12.248Z,9.70
2023-04-02T10:14:43.184Z,9.60
2023-04-02T10:17:24.120Z,9.90
2023-04-02T10:19:55.358Z,9.90
2023-04-02T10:22:23.223Z,9.80
2023-04-02T10:24:50.721Z,9.90
2023-04-02T10:27:25.471Z,10.10
2023-04-02T10:30:10.454Z,10.30
2023-04-02T10:43:10.096Z,10.50
2023-04-02T10:45:51.027Z,11.60
2023-04-02T10:48:43.279Z,11.70
2023-04-02T10:56:27.135Z,11.60
2023-04-02T10:59:03.632Z,11.90
2023-04-02T11:01:32.566Z,11.90
2023-04-02T11:04:05.667Z,11.70
2023-04-02T11:06:41.820Z,11.50
2023-04-02T11:09:19.207Z,11.10
2023-04-02T12:13:59.524Z,11.00
2023-04-02T12:16:32.869Z,12.60
2023-04-02T12:19:00.500Z,12.50
2023-04-02T12:21:29.050Z,12.50
2023-04-02T12:23:58.905Z,12.50
2023-04-02T12:26:36.959Z,12.60
2023-04-02T12:29:39.164Z,12.50
2023-04-02T12:32:34.855Z,12.30
2023-04-02T12:35:03.480Z,12.10
2023-04-02T12:37:30.950Z,11.80
2023-04-02T12:40:16.499Z,11.80
2023-04-02T12:42:43.100Z,11.80
2023-04-02T12:45:29.483Z,11.90
2023-04-02T12:47:58.193Z,11.90
2023-04-02T13:05:42.441Z,11.60
2023-04-02T13:08:29.422Z,10.10
2023-04-02T13:10:59.389Z,10.00
2023-04-02T13:13:38.892Z,10.00
2023-04-02T13:16:38.993Z,9.90
2023-04-02T13:19:22.775Z,9.80
2023-04-02T14:12:22.218Z,9.70
2023-04-02T14:17:59.291Z,8.90
2023-04-02T14:20:38.024Z,8.60
2023-04-02T16:46:11.900Z,8.50
2023-04-02T16:48:51.756Z,7.10
2023-04-02T16:51:52.454Z,7.00
2023-04-02T16:54:57.507Z,7.00
2023-04-02T16:57:36.561Z,7.00
2023-04-02T17:00:24.354Z,7.00
2023-04-02T17:03:02.425Z,6.90
2023-04-02T17:10:56.199Z,6.90
2023-04-02T18:13:09.856Z,6.70
2023-04-02T18:15:55.478Z,5.60
2023-04-02T18:18:44.054Z,5.60
2023-04-02T18:21:34.886Z,5.50
2023-04-02T18:24:20.558Z,5.50
2023-04-02T20:09:08.617Z,5.50
2023-04-02T23:08:13.631Z,4.20
2023-04-02T23:10:40.256Z,2.10
2023-04-02T23:13:06.833Z,2.00
